createdAt,value
2019-03-27T00:01:47.083Z,55.22
2019-03-27T00:04:19.419Z,55.72
2019-03-27T00:06:51.762Z,55.77
2019-03-27T00:09:24.297Z,56.93
2019-03-27T00:11:56.737Z,56.80
2019-03-27T00:14:29.274Z,56.80
2019-03-27T00:17:01.765Z,57.53
2019-03-27T00:19:34.295Z,57.53
2019-03-27T00:22:06.874Z,57.21
2019-03-27T00:24:39.298Z,57.21
2019-03-27T00:27:11.636Z,58.23
2019-03-27T00:29:44.291Z,58.23
2019-03-27T00:32:16.605Z,57.29
2019-03-27T00:34:48.878Z,57.29
2019-03-27T00:37:22.090Z,57.16
2019-03-27T00:39:54.569Z,57.02
2019-03-27T00:42:27.190Z,57.33
2019-03-27T00:44:59.513Z,56.99
2019-03-27T00:47:31.777Z,57.46
2019-03-27T00:50:04.505Z,58.22
2019-03-27T00:52:36.232Z,58.26
2019-03-27T00:55:10.382Z,58.37
2019-03-27T00:57:42.671Z,58.14
2019-03-27T01:00:48.862Z,58.56
2019-03-27T01:03:21.317Z,58.96
2019-03-27T01:05:53.231Z,59.16
2019-03-27T01:08:25.439Z,59.05
2019-03-27T01:10:57.111Z,59.15
2019-03-27T01:13:29.545Z,59.40
2019-03-27T01:16:02.305Z,60.46
2019-03-27T01:18:34.804Z,59.35
2019-03-27T01:21:07.532Z,59.35
2019-03-27T01:23:39.975Z,59.90
2019-03-27T01:26:12.386Z,60.06
2019-03-27T01:28:44.759Z,61.81
2019-03-27T01:31:17.334Z,61.81
2019-03-27T01:33:49.765Z,63.63
2019-03-27T01:36:23.459Z,63.63
2019-03-27T01:38:55.059Z,62.29
2019-03-27T01:41:27.730Z,61.85
2019-03-27T01:44:00.216Z,61.59
2019-03-27T01:46:32.557Z,59.83
2019-03-27T01:49:04.908Z,59.82
2019-03-27T01:51:37.350Z,61.01
2019-03-27T01:54:09.778Z,61.56
2019-03-27T01:56:42.452Z,61.56
2019-03-27T01:59:14.006Z,61.71
2019-03-27T02:01:48.154Z,61.86
2019-03-27T02:04:21.637Z,61.87
2019-03-27T02:06:54.294Z,61.85
2019-03-27T02:09:26.796Z,63.68
2019-03-27T02:11:59.343Z,63.68
2019-03-27T02:14:32.051Z,65.50
2019-03-27T02:17:04.746Z,65.50
2019-03-27T02:19:37.324Z,66.00
2019-03-27T02:22:13.305Z,68.55
2019-03-27T02:24:45.753Z,72.43
2019-03-27T02:27:18.400Z,72.43
2019-03-27T02:29:50.881Z,69.19
2019-03-27T02:32:23.300Z,69.19
2019-03-27T02:34:55.575Z,74.13
2019-03-27T02:37:28.299Z,74.13
2019-03-27T02:40:00.607Z,72.87
2019-03-27T02:42:33.043Z,72.87
2019-03-27T02:45:06.746Z,72.60
2019-03-27T02:47:39.295Z,70.43
2019-03-27T02:50:11.846Z,70.76
2019-03-27T02:52:44.295Z,70.76
2019-03-27T02:55:16.730Z,69.79
2019-03-27T02:57:49.378Z,69.79
2019-03-27T03:00:22.408Z,70.35
2019-03-27T03:02:54.750Z,70.35
2019-03-27T03:05:27.292Z,68.76
2019-03-27T03:07:59.653Z,70.22
2019-03-27T03:10:32.278Z,70.22
2019-03-27T03:13:04.763Z,67.46
2019-03-27T03:15:37.300Z,67.70
2019-03-27T03:18:09.771Z,68.37
2019-03-27T03:20:42.317Z,68.37
2019-03-27T03:23:14.614Z,67.82
2019-03-27T03:25:47.015Z,67.82
2019-03-27T03:28:19.362Z,66.96
2019-03-27T03:30:51.841Z,67.97
2019-03-27T03:33:24.431Z,67.97
2019-03-27T03:35:56.892Z,68.32
2019-03-27T03:38:29.461Z,68.98
2019-03-27T03:41:02.310Z,67.51
2019-03-27T03:43:34.639Z,67.76
2019-03-27T03:46:07.287Z,67.76
2019-03-27T03:48:39.252Z,67.74
2019-03-27T03:51:11.680Z,67.57
2019-03-27T03:53:44.308Z,67.49
2019-03-27T03:56:18.766Z,67.22
2019-03-27T03:58:52.352Z,67.22
2019-03-27T04:01:28.573Z,67.64
2019-03-27T04:04:02.818Z,67.64
2019-03-27T04:06:35.295Z,66.85
2019-03-27T04:09:09.435Z,67.40
2019-03-27T04:11:41.263Z,67.40
2019-03-27T04:14:13.739Z,67.62
2019-03-27T04:16:46.301Z,67.34
2019-03-27T04:19:18.689Z,67.36
2019-03-27T04:21:52.045Z,67.36
2019-03-27T04:24:29.890Z,67.56
2019-03-27T04:27:02.693Z,67.78
2019-03-27T04:29:35.106Z,67.91
2019-03-27T04:32:07.522Z,67.72
2019-03-27T04:34:39.807Z,67.66
2019-03-27T04:37:12.289Z,67.39
2019-03-27T04:39:44.254Z,68.41
2019-03-27T04:42:16.362Z,68.98
2019-03-27T04:44:48.302Z,69.03
2019-03-27T04:47:31.973Z,68.28
2019-03-27T04:49:55.294Z,69.20
2019-03-27T04:52:32.292Z,69.08
2019-03-27T04:55:06.292Z,68.87
2019-03-27T04:57:38.686Z,69.64
2019-03-27T05:00:12.482Z,69.64
2019-03-27T05:02:44.260Z,69.59
2019-03-27T05:05:17.324Z,69.35
2019-03-27T05:07:49.659Z,69.03
2019-03-27T05:10:23.038Z,69.03
2019-03-27T05:12:55.373Z,69.57
2019-03-27T05:15:27.826Z,69.55
2019-03-27T05:18:00.353Z,69.55
2019-03-27T05:20:32.976Z,69.16
2019-03-27T05:23:05.462Z,68.78
2019-03-27T05:25:37.064Z,69.02
2019-03-27T05:28:09.382Z,68.69
2019-03-27T05:30:41.832Z,67.15
2019-03-27T05:33:14.290Z,67.15
2019-03-27T05:35:46.654Z,67.66
2019-03-27T05:38:19.277Z,67.66
2019-03-27T05:40:54.511Z,68.40
2019-03-27T05:43:26.825Z,68.76
2019-03-27T05:45:59.295Z,68.43
2019-03-27T05:48:34.300Z,67.71
2019-03-27T05:51:06.662Z,68.23
2019-03-27T05:53:39.273Z,68.23
2019-03-27T05:56:11.546Z,68.21
2019-03-27T05:58:44.013Z,67.00
2019-03-27T06:01:16.367Z,67.11
2019-03-27T06:03:48.728Z,66.94
2019-03-27T06:06:21.311Z,66.94
2019-03-27T06:08:56.193Z,67.18
2019-03-27T06:11:28.650Z,66.84
2019-03-27T06:14:01.293Z,66.36
2019-03-27T06:16:33.871Z,66.18
2019-03-27T06:19:06.378Z,66.18
2019-03-27T06:21:38.874Z,66.41
2019-03-27T06:24:11.299Z,65.94
2019-03-27T06:26:43.604Z,65.36
2019-03-27T06:29:16.128Z,65.36
2019-03-27T06:31:48.566Z,64.58
2019-03-27T06:34:21.290Z,64.23
2019-03-27T06:36:53.651Z,64.45
2019-03-27T06:39:27.608Z,65.20
2019-03-27T06:42:04.362Z,65.20
2019-03-27T06:44:36.713Z,64.16
2019-03-27T06:47:09.291Z,64.16
2019-03-27T06:49:41.655Z,63.66
2019-03-27T06:52:14.265Z,63.66
2019-03-27T06:54:46.554Z,63.44
2019-03-27T06:57:18.870Z,62.96
2019-03-27T06:59:51.301Z,62.79
2019-03-27T07:02:23.275Z,62.69
2019-03-27T07:04:55.271Z,62.76
2019-03-27T07:07:27.623Z,62.71
2019-03-27T07:10:00.406Z,62.71
2019-03-27T07:12:32.421Z,61.65
2019-03-27T07:15:05.614Z,61.11
2019-03-27T07:17:38.264Z,61.11
2019-03-27T07:20:11.832Z,60.14
2019-03-27T07:22:44.293Z,60.90
2019-03-27T07:25:17.025Z,59.68
2019-03-27T07:27:49.530Z,59.68
2019-03-27T07:30:22.284Z,61.03
2019-03-27T07:32:54.686Z,60.64
2019-03-27T07:35:27.311Z,60.64
2019-03-27T07:38:02.808Z,60.19
2019-03-27T07:40:35.295Z,60.19
2019-03-27T07:43:07.753Z,59.74
2019-03-27T07:45:40.267Z,59.74
2019-03-27T07:48:12.625Z,60.12
2019-03-27T07:50:45.259Z,60.12
2019-03-27T07:53:22.214Z,59.71
2019-03-27T07:55:53.286Z,60.07
2019-03-27T07:58:25.673Z,59.68
2019-03-27T08:00:59.604Z,59.68
2019-03-27T08:03:32.190Z,57.84
2019-03-27T08:06:07.830Z,57.95
2019-03-27T08:08:40.309Z,56.98
2019-03-27T08:11:12.766Z,56.58
2019-03-27T08:13:45.580Z,56.58
2019-03-27T08:16:18.288Z,57.03
2019-03-27T08:18:50.751Z,56.68
2019-03-27T08:21:23.281Z,56.68
2019-03-27T08:23:55.755Z,56.18
2019-03-27T08:26:28.290Z,56.18
2019-03-27T08:29:00.601Z,55.32
2019-03-27T08:31:33.300Z,55.32
2019-03-27T08:34:06.126Z,55.60
2019-03-27T08:36:38.650Z,55.60
2019-03-27T08:39:11.358Z,55.57
2019-03-27T08:41:43.427Z,55.60
2019-03-27T08:44:15.039Z,55.86
2019-03-27T08:46:47.382Z,55.95
2019-03-27T08:49:22.199Z,54.79
2019-03-27T08:51:53.019Z,54.79
2019-03-27T08:54:25.724Z,55.89
2019-03-27T08:56:58.302Z,55.33
2019-03-27T08:59:30.646Z,53.45
2019-03-27T09:02:04.308Z,53.45
2019-03-27T09:04:36.794Z,52.11
2019-03-27T09:07:11.659Z,52.11
2019-03-27T09:09:44.278Z,50.96
2019-03-27T09:12:16.638Z,51.63
2019-03-27T09:14:49.345Z,51.63
2019-03-27T09:17:21.219Z,53.78
2019-03-27T09:19:54.556Z,55.16
2019-03-27T09:22:29.810Z,54.59
2019-03-27T09:25:43.097Z,53.82
2019-03-27T09:28:15.772Z,53.46
2019-03-27T09:30:49.850Z,52.84
2019-03-27T09:33:22.326Z,52.84
2019-03-27T09:35:56.604Z,50.97
2019-03-27T09:38:29.289Z,50.97
2019-03-27T09:41:01.602Z,52.79
2019-03-27T09:43:33.891Z,54.56
2019-03-27T09:46:06.509Z,53.23
2019-03-27T09:48:38.231Z,54.12
2019-03-27T09:51:10.814Z,51.33
2019-03-27T09:53:43.306Z,49.30
2019-03-27T09:56:19.475Z,47.64
2019-03-27T09:58:50.293Z,47.64
2019-03-27T10:01:22.613Z,46.50
2019-03-27T10:03:54.991Z,46.50
2019-03-27T10:06:27.302Z,46.01
2019-03-27T10:08:59.777Z,45.11
2019-03-27T10:11:32.311Z,45.11
2019-03-27T10:14:04.753Z,43.48
2019-03-27T10:16:40.289Z,43.48
2019-03-27T10:19:13.021Z,42.12
2019-03-27T10:21:46.882Z,42.12
2019-03-27T10:24:19.360Z,42.42
2019-03-27T10:26:51.785Z,41.19
2019-03-27T10:29:24.294Z,41.19
2019-03-27T10:31:56.993Z,41.10
2019-03-27T10:34:29.493Z,41.10
2019-03-27T10:37:01.336Z,40.54
2019-03-27T10:39:33.743Z,41.04
2019-03-27T10:42:06.303Z,41.04
2019-03-27T10:44:40.414Z,41.91
2019-03-27T10:47:12.784Z,42.57
2019-03-27T10:49:45.321Z,42.92
2019-03-27T10:52:17.682Z,43.81
2019-03-27T10:54:50.322Z,43.81
2019-03-27T10:57:22.891Z,41.73
2019-03-27T10:59:55.436Z,41.73
2019-03-27T11:02:27.096Z,41.08
2019-03-27T11:04:59.647Z,41.50
2019-03-27T11:07:32.288Z,41.44
2019-03-27T11:10:08.406Z,41.36
2019-03-27T11:12:41.226Z,40.42
2019-03-27T11:15:14.692Z,40.42
2019-03-27T11:17:47.313Z,39.06
2019-03-27T11:20:30.353Z,37.57
2019-03-27T11:22:54.512Z,37.57
2019-03-27T11:25:27.328Z,37.75
2019-03-27T11:27:59.847Z,34.48
2019-03-27T11:30:39.826Z,34.48
2019-03-27T11:33:12.451Z,34.99
2019-03-27T11:35:44.296Z,35.40
2019-03-27T11:38:16.554Z,34.00
2019-03-27T11:40:48.911Z,33.99
2019-03-27T11:43:28.130Z,34.27
2019-03-27T11:46:00.705Z,33.74
2019-03-27T11:48:33.299Z,32.69
2019-03-27T11:51:06.262Z,32.90
2019-03-27T11:53:38.869Z,32.75
2019-03-27T11:56:11.521Z,33.48
2019-03-27T11:58:44.054Z,33.37
2019-03-27T12:01:16.641Z,33.70
2019-03-27T12:03:49.307Z,33.60
2019-03-27T12:06:21.888Z,33.83
2019-03-27T12:08:54.431Z,33.83
2019-03-27T12:11:26.106Z,33.89
2019-03-27T12:13:58.459Z,36.20
2019-03-27T12:16:30.290Z,35.39
2019-03-27T12:19:02.515Z,34.66
2019-03-27T12:21:35.061Z,33.19
2019-03-27T12:24:07.668Z,29.14
2019-03-27T12:26:41.905Z,26.65
2019-03-27T12:29:18.146Z,23.79
2019-03-27T12:31:50.368Z,24.41
2019-03-27T12:34:22.768Z,27.77
2019-03-27T12:36:55.752Z,27.77
2019-03-27T12:39:28.657Z,29.03
2019-03-27T12:42:01.432Z,32.49
2019-03-27T12:44:33.987Z,34.51
2019-03-27T12:47:08.428Z,34.70
2019-03-27T12:49:41.482Z,35.96
2019-03-27T12:52:17.315Z,36.33
2019-03-27T12:54:49.269Z,37.51
2019-03-27T12:57:21.828Z,37.70
2019-03-27T12:59:54.717Z,37.75
2019-03-27T13:02:27.524Z,37.90
2019-03-27T13:05:02.719Z,36.98
2019-03-27T13:07:49.081Z,37.34
2019-03-27T13:10:10.579Z,37.20
2019-03-27T13:12:43.357Z,35.24
2019-03-27T13:15:16.071Z,32.65
2019-03-27T13:17:48.594Z,32.65
2019-03-27T13:20:21.500Z,31.36
2019-03-27T13:22:54.308Z,30.59
2019-03-27T13:25:27.003Z,27.25
2019-03-27T13:27:59.542Z,27.25
2019-03-27T13:30:32.406Z,25.03
2019-03-27T13:33:04.360Z,24.21
2019-03-27T13:35:36.760Z,24.99
2019-03-27T13:38:10.391Z,24.99
2019-03-27T13:40:42.231Z,26.23
2019-03-27T13:43:14.666Z,25.52
2019-03-27T13:45:47.308Z,26.92
2019-03-27T13:48:22.999Z,27.36
2019-03-27T13:50:57.332Z,27.36
2019-03-27T13:53:31.439Z,27.46
2019-03-27T13:56:04.170Z,28.31
2019-03-27T13:58:36.633Z,28.43
2019-03-27T14:01:12.816Z,29.98
2019-03-27T14:03:43.489Z,30.26
2019-03-27T14:06:16.334Z,30.62
2019-03-27T14:08:50.065Z,31.06
2019-03-27T14:11:23.184Z,31.30
2019-03-27T14:13:55.902Z,31.30
2019-03-27T14:16:31.442Z,31.81
2019-03-27T14:19:03.274Z,31.95
2019-03-27T14:21:35.321Z,32.89
2019-03-27T14:24:07.995Z,32.93
2019-03-27T14:26:45.510Z,32.93
2019-03-27T14:29:16.411Z,33.74
2019-03-27T14:31:49.278Z,33.23
2019-03-27T14:34:21.716Z,30.98
2019-03-27T14:36:56.288Z,30.98
2019-03-27T14:39:29.296Z,29.32
2019-03-27T14:42:02.880Z,29.12
2019-03-27T14:44:37.493Z,29.12
2019-03-27T14:47:10.414Z,27.78
2019-03-27T14:49:42.352Z,27.77
2019-03-27T14:52:15.286Z,26.06
2019-03-27T14:54:47.850Z,25.84
2019-03-27T14:57:23.420Z,25.84
2019-03-27T14:59:56.305Z,27.36
2019-03-27T15:02:30.718Z,27.60
2019-03-27T15:05:03.551Z,29.05
2019-03-27T15:07:36.354Z,29.67
2019-03-27T15:10:12.786Z,29.96
2019-03-27T15:12:47.935Z,30.55
2019-03-27T15:15:20.551Z,30.57
2019-03-27T15:17:53.366Z,30.99
2019-03-27T15:20:26.316Z,31.87
2019-03-27T15:23:01.233Z,32.82
2019-03-27T15:25:33.959Z,33.84
2019-03-27T15:28:08.712Z,33.66
2019-03-27T15:30:43.580Z,33.11
2019-03-27T15:33:22.327Z,34.50
2019-03-27T15:36:06.015Z,34.83
2019-03-27T15:38:39.158Z,34.83
2019-03-27T15:41:13.499Z,35.31
2019-03-27T15:43:46.385Z,35.50
2019-03-27T15:46:18.514Z,35.14
2019-03-27T15:48:50.139Z,35.12
2019-03-27T15:51:22.640Z,34.96
2019-03-27T15:53:55.357Z,35.43
2019-03-27T15:56:27.258Z,35.22
2019-03-27T15:59:02.616Z,35.33
2019-03-27T16:01:45.761Z,35.51
2019-03-27T16:04:20.255Z,35.99
2019-03-27T16:06:53.480Z,36.71
2019-03-27T16:09:30.369Z,36.71
2019-03-27T16:12:02.488Z,37.20
2019-03-27T16:14:38.581Z,37.13
2019-03-27T16:17:13.743Z,37.25
2019-03-27T16:19:45.280Z,36.78
2019-03-27T16:22:27.532Z,37.40
2019-03-27T16:25:03.934Z,37.57
2019-03-27T16:27:39.306Z,37.37
2019-03-27T16:30:17.021Z,37.42
2019-03-27T16:32:48.328Z,38.41
2019-03-27T16:35:20.504Z,38.64
2019-03-27T16:37:52.240Z,37.97
2019-03-27T16:40:49.390Z,37.88
2019-03-27T16:43:21.235Z,38.21
2019-03-27T16:45:54.078Z,38.98
2019-03-27T16:48:26.718Z,38.98
2019-03-27T16:51:02.550Z,38.68
2019-03-27T16:53:35.404Z,38.37
2019-03-27T16:56:07.297Z,38.52
2019-03-27T16:58:44.460Z,39.15
2019-03-27T17:01:19.790Z,39.86
2019-03-27T17:03:57.555Z,38.92
2019-03-27T17:06:35.829Z,38.10
2019-03-27T17:09:10.313Z,38.57
2019-03-27T17:11:43.345Z,39.63
2019-03-27T17:14:18.403Z,39.03
2019-03-27T17:16:52.773Z,39.76
2019-03-27T17:19:27.930Z,39.76
2019-03-27T17:22:01.531Z,41.21
2019-03-27T17:24:38.798Z,41.21
2019-03-27T17:27:11.688Z,39.92
2019-03-27T17:29:47.257Z,39.36
2019-03-27T17:32:20.671Z,39.96
2019-03-27T17:34:56.616Z,40.46
2019-03-27T17:37:33.870Z,40.46
2019-03-27T17:40:10.321Z,40.58
2019-03-27T17:42:50.523Z,41.04
2019-03-27T17:45:26.364Z,41.04
2019-03-27T17:48:01.235Z,41.43
2019-03-27T17:50:38.757Z,41.69
2019-03-27T17:53:14.242Z,41.69
2019-03-27T17:56:22.421Z,42.19
2019-03-27T17:58:56.613Z,42.49
2019-03-27T18:01:33.370Z,42.66
2019-03-27T18:04:06.722Z,42.69
2019-03-27T18:06:42.320Z,43.44
2019-03-27T18:09:16.394Z,43.28
2019-03-27T18:11:49.135Z,43.44
2019-03-27T18:14:23.645Z,44.41
2019-03-27T18:16:56.364Z,44.41
2019-03-27T18:19:33.726Z,44.31
2019-03-27T18:22:07.962Z,45.32
2019-03-27T18:24:43.512Z,45.04
2019-03-27T18:27:16.372Z,45.14
2019-03-27T18:29:48.110Z,45.82
2019-03-27T18:32:21.428Z,46.20
2019-03-27T18:34:55.334Z,46.20
2019-03-27T18:37:30.034Z,45.77
2019-03-27T18:40:06.364Z,46.05
2019-03-27T18:42:41.410Z,46.44
2019-03-27T18:45:16.969Z,46.55
2019-03-27T18:47:51.444Z,47.07
2019-03-27T18:50:25.432Z,46.89
2019-03-27T18:52:59.472Z,46.89
2019-03-27T18:57:58.995Z,46.10
2019-03-27T19:00:21.183Z,45.92
2019-03-27T19:02:55.430Z,45.53
2019-03-27T19:05:35.649Z,45.77
2019-03-27T19:08:11.480Z,46.52
2019-03-27T19:10:44.303Z,46.95
2019-03-27T19:13:17.359Z,47.23
2019-03-27T19:15:50.349Z,47.23
2019-03-27T19:18:25.315Z,47.72
2019-03-27T19:20:57.551Z,48.06
2019-03-27T19:23:30.360Z,48.79
2019-03-27T19:26:03.168Z,48.91
2019-03-27T19:28:35.792Z,50.54
2019-03-27T19:31:08.420Z,50.54
2019-03-27T19:33:40.249Z,50.26
2019-03-27T19:36:13.104Z,50.72
2019-03-27T19:38:45.461Z,50.83
2019-03-27T19:41:19.273Z,51.08
2019-03-27T19:43:51.844Z,51.22
2019-03-27T19:46:24.512Z,51.22
2019-03-27T19:48:56.262Z,51.09
2019-03-27T19:51:29.760Z,51.23
2019-03-27T19:54:02.379Z,51.04
2019-03-27T19:56:34.846Z,50.91
2019-03-27T19:59:10.417Z,50.91
2019-03-27T20:01:43.087Z,51.22
2019-03-27T20:04:16.389Z,51.16
2019-03-27T20:07:19.359Z,51.32
2019-03-27T20:10:33.699Z,54.20
2019-03-27T20:13:23.410Z,52.36
2019-03-27T20:16:22.562Z,52.42
2019-03-27T20:19:17.023Z,52.57
2019-03-27T20:21:55.394Z,53.03
2019-03-27T20:25:09.799Z,54.07
2019-03-27T20:27:38.303Z,53.74
2019-03-27T20:30:17.305Z,55.43
2019-03-27T20:32:50.131Z,55.36
2019-03-27T20:35:23.127Z,55.58
2019-03-27T20:37:56.011Z,56.07
2019-03-27T20:40:28.487Z,56.07
2019-03-27T20:43:03.373Z,55.15
2019-03-27T20:45:38.463Z,55.70
2019-03-27T20:48:12.471Z,56.28
2019-03-27T20:51:01.439Z,58.38
2019-03-27T20:53:48.068Z,57.99
2019-03-27T20:56:21.317Z,58.95
2019-03-27T20:58:53.350Z,58.88
2019-03-27T21:01:26.308Z,59.97
2019-03-27T21:04:00.927Z,59.97
2019-03-27T21:06:33.822Z,60.00
2019-03-27T21:09:08.052Z,59.95
2019-03-27T21:12:00.804Z,59.43
2019-03-27T21:14:34.276Z,59.97
2019-03-27T21:17:08.819Z,60.44
2019-03-27T21:19:42.744Z,60.44
2019-03-27T21:22:17.438Z,60.12
2019-03-27T21:24:50.998Z,60.87
2019-03-27T21:27:25.402Z,61.85
2019-03-27T21:30:36.961Z,62.04
2019-03-27T22:11:52.013Z,66.01
2019-03-27T22:14:27.332Z,66.33
2019-03-27T22:17:06.294Z,66.53
2019-03-27T22:19:43.798Z,67.11
2019-03-27T22:22:26.232Z,67.86
2019-03-27T22:25:05.365Z,68.02
2019-03-27T22:27:48.380Z,68.28
2019-03-27T22:33:53.670Z,69.36
2019-03-27T22:44:01.885Z,69.72
2019-03-27T22:46:49.733Z,69.19
2019-03-27T22:49:31.541Z,70.05
2019-03-27T22:55:27.321Z,70.06
2019-03-27T23:00:52.547Z,70.34
2019-03-27T23:03:25.425Z,69.55
2019-03-27T23:05:57.808Z,70.37
2019-03-27T23:08:30.328Z,71.15
2019-03-27T23:11:02.900Z,71.18
2019-03-27T23:13:35.312Z,71.34
2019-03-27T23:16:10.260Z,71.71
2019-03-27T23:18:42.250Z,71.19
2019-03-27T23:21:14.595Z,71.50
2019-03-27T23:23:47.322Z,71.34
2019-03-27T23:26:19.637Z,71.44
2019-03-27T23:28:52.133Z,71.44
2019-03-27T23:31:24.444Z,70.98
2019-03-27T23:33:56.756Z,71.68
2019-03-27T23:36:29.349Z,71.82
2019-03-27T23:39:01.304Z,72.36
2019-03-27T23:41:35.028Z,72.49
2019-03-27T23:44:07.494Z,72.49
2019-03-27T23:46:39.870Z,73.07
2019-03-27T23:49:12.342Z,73.51
2019-03-27T23:51:44.816Z,73.57
2019-03-27T23:54:17.306Z,73.57
2019-03-27T23:56:49.620Z,74.06
2019-03-27T23:59:22.056Z,74.06
